createdAt,value
2019-03-16T00:00:57.354Z,99.90
2019-03-16T00:03:27.240Z,99.90
2019-03-16T00:05:56.667Z,99.90
2019-03-16T00:08:26.088Z,99.90
2019-03-16T00:10:55.731Z,99.90
2019-03-16T00:13:25.224Z,99.90
2019-03-16T00:15:54.639Z,99.90
2019-03-16T00:18:24.087Z,99.90
2019-03-16T00:20:53.503Z,99.90
2019-03-16T00:23:23.127Z,99.90
2019-03-16T00:25:52.795Z,99.90
2019-03-16T00:28:22.291Z,99.90
2019-03-16T00:30:52.031Z,99.90
2019-03-16T00:33:21.573Z,99.90
2019-03-16T00:35:51.428Z,99.90
2019-03-16T00:38:23.324Z,99.90
2019-03-16T00:40:52.280Z,99.90
2019-03-16T00:43:21.707Z,99.90
2019-03-16T00:45:51.132Z,99.90
2019-03-16T00:48:20.864Z,99.90
2019-03-16T00:50:50.369Z,99.90
2019-03-16T00:53:19.792Z,99.90
2019-03-16T00:55:49.480Z,99.90
2019-03-16T00:58:18.909Z,99.90
2019-03-16T01:00:48.476Z,99.90
2019-03-16T01:03:18.754Z,99.90
2019-03-16T01:05:48.185Z,99.90
2019-03-16T01:08:17.968Z,99.90
2019-03-16T01:10:47.988Z,99.90
2019-03-16T01:13:17.438Z,99.90
2019-03-16T01:15:46.936Z,99.90
2019-03-16T01:18:16.430Z,99.90
2019-03-16T01:20:45.912Z,99.90
2019-03-16T01:23:17.619Z,99.90
2019-03-16T01:25:46.510Z,99.90
2019-03-16T01:28:16.000Z,99.90
2019-03-16T01:30:45.504Z,99.90
2019-03-16T01:33:15.649Z,99.90
2019-03-16T01:35:45.087Z,99.90
2019-03-16T01:38:14.685Z,99.90
2019-03-16T01:40:56.916Z,99.90
2019-03-16T01:43:26.715Z,99.90
2019-03-16T01:45:56.173Z,99.90
2019-03-16T01:48:25.873Z,99.90
2019-03-16T01:50:55.444Z,99.90
2019-03-16T01:53:24.944Z,99.90
2019-03-16T01:55:54.393Z,99.90
2019-03-16T01:58:23.919Z,99.90
2019-03-16T02:00:53.327Z,99.90
2019-03-16T02:03:23.006Z,99.90
2019-03-16T02:05:53.212Z,99.90
2019-03-16T02:08:22.709Z,99.90
2019-03-16T02:10:52.216Z,99.90
2019-03-16T02:13:21.918Z,99.90
2019-03-16T02:15:51.724Z,99.90
2019-03-16T02:18:21.171Z,99.90
2019-03-16T02:20:50.940Z,99.90
2019-03-16T02:23:20.355Z,99.90
2019-03-16T02:25:49.807Z,99.90
2019-03-16T02:28:19.228Z,99.90
2019-03-16T02:30:48.685Z,99.90
2019-03-16T02:33:18.533Z,99.90
2019-03-16T02:35:48.028Z,99.90
2019-03-16T02:38:17.633Z,99.90
2019-03-16T02:40:47.092Z,99.90
2019-03-16T02:43:16.576Z,99.90
2019-03-16T02:45:46.000Z,99.90
2019-03-16T02:48:15.449Z,99.90
2019-03-16T02:50:44.949Z,99.90
2019-03-16T02:53:14.369Z,99.90
2019-03-16T02:55:44.168Z,99.90
2019-03-16T02:58:14.268Z,99.90
2019-03-16T03:00:44.055Z,99.90
2019-03-16T03:03:28.389Z,99.90
2019-03-16T03:05:44.713Z,99.90
2019-03-16T03:08:14.842Z,99.90
2019-03-16T03:10:44.332Z,99.90
2019-03-16T03:13:14.427Z,99.90
2019-03-16T03:15:44.078Z,99.90
2019-03-16T03:18:14.282Z,99.90
2019-03-16T03:20:43.704Z,99.90
2019-03-16T03:23:13.216Z,99.90
2019-03-16T03:25:42.744Z,99.90
2019-03-16T03:28:12.235Z,99.90
2019-03-16T03:30:41.711Z,99.90
2019-03-16T03:33:11.537Z,99.90
2019-03-16T03:35:41.032Z,99.90
2019-03-16T03:38:10.456Z,99.90
2019-03-16T03:40:40.121Z,99.90
2019-03-16T03:43:09.545Z,99.90
2019-03-16T03:45:39.035Z,99.90
2019-03-16T03:48:09.069Z,99.90
2019-03-16T03:50:38.735Z,99.90
2019-03-16T03:53:08.291Z,99.90
2019-03-16T03:55:38.029Z,99.90
2019-03-16T03:58:07.457Z,99.90
2019-03-16T04:00:37.017Z,99.90
2019-03-16T04:03:06.625Z,99.90
2019-03-16T04:05:36.346Z,99.90
2019-03-16T04:08:05.957Z,99.90
2019-03-16T04:10:35.732Z,99.90
2019-03-16T04:13:05.332Z,99.90
2019-03-16T04:15:34.826Z,99.90
2019-03-16T04:18:04.352Z,99.90
2019-03-16T04:20:34.023Z,99.90
2019-03-16T04:23:03.628Z,99.90
2019-03-16T04:25:33.652Z,99.90
2019-03-16T04:28:03.081Z,99.90
2019-03-16T04:30:32.827Z,99.90
2019-03-16T04:33:03.144Z,99.90
2019-03-16T04:35:32.636Z,99.90
2019-03-16T04:38:02.217Z,99.90
2019-03-16T04:40:31.740Z,99.90
2019-03-16T04:43:01.166Z,99.90
2019-03-16T04:45:30.972Z,99.90
2019-03-16T04:48:00.747Z,99.90
2019-03-16T04:50:30.604Z,99.90
2019-03-16T04:53:00.283Z,99.90
2019-03-16T04:55:30.124Z,99.90
2019-03-16T04:57:59.643Z,99.90
2019-03-16T05:00:29.067Z,99.90
2019-03-16T05:02:59.015Z,99.90
2019-03-16T05:05:28.554Z,99.90
2019-03-16T05:07:58.036Z,99.90
2019-03-16T05:10:27.983Z,99.90
2019-03-16T05:12:57.939Z,99.90
2019-03-16T05:15:27.627Z,99.90
2019-03-16T05:17:57.139Z,99.90
2019-03-16T05:20:26.560Z,99.90
2019-03-16T05:22:55.988Z,99.90
2019-03-16T05:25:25.508Z,99.90
2019-03-16T05:27:55.231Z,99.90
2019-03-16T05:30:24.654Z,99.90
2019-03-16T05:32:54.607Z,99.90
2019-03-16T05:35:24.312Z,99.90
2019-03-16T05:37:54.077Z,99.90
2019-03-16T05:40:23.531Z,99.90
2019-03-16T05:42:53.040Z,99.90
2019-03-16T05:45:22.796Z,99.90
2019-03-16T05:47:52.252Z,99.90
2019-03-16T05:50:22.682Z,99.90
2019-03-16T05:52:52.247Z,99.90
2019-03-16T05:55:22.029Z,99.90
2019-03-16T05:57:51.452Z,99.90
2019-03-16T06:00:20.889Z,99.90
2019-03-16T06:02:50.393Z,99.90
2019-03-16T06:05:19.899Z,99.90
2019-03-16T06:07:49.468Z,99.90
2019-03-16T06:10:18.960Z,99.90
2019-03-16T06:12:48.386Z,99.90
2019-03-16T06:15:18.562Z,99.90
2019-03-16T06:17:48.829Z,99.90
2019-03-16T06:20:18.319Z,99.90
2019-03-16T06:22:47.748Z,99.90
2019-03-16T06:25:17.271Z,99.90
2019-03-16T06:27:46.696Z,99.90
2019-03-16T06:30:20.568Z,99.90
2019-03-16T06:32:48.324Z,99.90
2019-03-16T06:35:24.632Z,99.90
2019-03-16T06:37:48.924Z,99.90
2019-03-16T06:40:18.415Z,99.90
2019-03-16T06:42:47.831Z,99.90
2019-03-16T06:45:17.319Z,99.90
2019-03-16T06:47:46.772Z,99.90
2019-03-16T06:50:17.079Z,99.90
2019-03-16T06:52:46.989Z,99.90
2019-03-16T06:55:16.956Z,99.90
2019-03-16T06:57:46.760Z,99.90
2019-03-16T07:00:17.632Z,99.90
2019-03-16T07:02:48.492Z,99.90
2019-03-16T07:05:22.022Z,99.90
2019-03-16T07:07:49.552Z,99.90
2019-03-16T07:10:19.080Z,99.90
2019-03-16T07:12:48.515Z,99.90
2019-03-16T07:15:18.525Z,99.90
2019-03-16T07:17:48.551Z,99.90
2019-03-16T07:20:18.045Z,99.90
2019-03-16T07:22:47.768Z,99.90
2019-03-16T07:25:17.347Z,99.90
2019-03-16T07:27:47.291Z,99.90
2019-03-16T07:30:16.852Z,99.90
2019-03-16T07:32:46.718Z,99.90
2019-03-16T07:35:16.525Z,99.90
2019-03-16T07:37:45.947Z,99.90
2019-03-16T07:40:15.539Z,99.90
2019-03-16T07:42:45.031Z,99.90
2019-03-16T07:45:14.600Z,99.90
2019-03-16T07:47:44.104Z,99.90
2019-03-16T07:50:14.196Z,99.90
2019-03-16T07:52:43.981Z,99.90
2019-03-16T07:55:13.954Z,99.90
2019-03-16T07:57:43.455Z,99.90
2019-03-16T08:00:13.628Z,99.90
2019-03-16T08:02:43.327Z,99.90
2019-03-16T08:05:18.865Z,99.90
2019-03-16T08:07:44.491Z,99.90
2019-03-16T08:10:14.078Z,99.90
2019-03-16T08:12:43.741Z,99.90
2019-03-16T08:15:13.832Z,99.90
2019-03-16T08:17:43.355Z,99.90
2019-03-16T08:20:13.781Z,99.90
2019-03-16T08:22:43.912Z,99.90
2019-03-16T08:25:13.796Z,99.90
2019-03-16T08:27:53.662Z,99.90
2019-03-16T08:30:14.696Z,99.90
2019-03-16T08:32:44.384Z,99.90
2019-03-16T08:35:14.076Z,99.90
2019-03-16T08:37:43.576Z,99.90
2019-03-16T08:40:13.107Z,99.90
2019-03-16T08:42:42.612Z,99.90
2019-03-16T08:45:12.189Z,99.90
2019-03-16T08:47:42.008Z,99.90
2019-03-16T08:50:12.352Z,99.90
2019-03-16T08:52:42.154Z,99.90
2019-03-16T08:55:12.216Z,99.90
2019-03-16T08:57:41.732Z,99.90
2019-03-16T09:00:13.332Z,99.90
2019-03-16T09:02:43.048Z,99.90
2019-03-16T09:05:12.612Z,99.90
2019-03-16T09:07:42.189Z,99.90
2019-03-16T09:10:12.173Z,99.90
2019-03-16T09:12:53.924Z,99.90
2019-03-16T09:15:16.860Z,99.90
2019-03-16T09:17:46.992Z,99.90
2019-03-16T09:20:16.420Z,99.90
2019-03-16T09:22:46.361Z,99.90
2019-03-16T09:25:16.227Z,99.90
2019-03-16T09:27:45.661Z,99.90
2019-03-16T09:30:16.236Z,99.90
2019-03-16T09:32:46.125Z,99.90
2019-03-16T09:35:15.711Z,99.90
2019-03-16T09:37:45.231Z,99.90
2019-03-16T09:40:14.815Z,99.90
2019-03-16T09:42:45.494Z,99.90
2019-03-16T09:45:15.466Z,99.90
2019-03-16T09:47:45.266Z,99.90
2019-03-16T09:50:14.860Z,99.90
2019-03-16T09:52:45.400Z,99.90
2019-03-16T09:55:15.132Z,99.90
2019-03-16T09:57:44.697Z,99.90
2019-03-16T10:00:18.361Z,99.90
2019-03-16T10:02:50.696Z,99.90
2019-03-16T10:05:20.548Z,99.90
2019-03-16T10:07:50.114Z,99.90
2019-03-16T10:10:19.783Z,99.90
2019-03-16T10:12:49.329Z,99.90
2019-03-16T10:15:18.947Z,99.90
2019-03-16T10:17:49.494Z,99.90
2019-03-16T10:20:19.148Z,99.90
2019-03-16T10:22:49.612Z,99.90
2019-03-16T10:25:19.869Z,99.90
2019-03-16T10:27:49.581Z,99.90
2019-03-16T10:30:19.048Z,99.90
2019-03-16T10:32:49.591Z,99.90
2019-03-16T10:35:19.172Z,99.90
2019-03-16T10:37:48.843Z,99.90
2019-03-16T10:40:18.487Z,99.90
2019-03-16T10:42:48.036Z,99.90
2019-03-16T10:45:17.973Z,99.90
2019-03-16T10:47:47.724Z,99.90
2019-03-16T10:50:17.157Z,99.90
2019-03-16T10:52:46.748Z,99.90
2019-03-16T10:55:16.668Z,99.90
2019-03-16T10:57:46.259Z,99.90
2019-03-16T11:00:17.236Z,99.90
2019-03-16T11:02:48.164Z,99.90
2019-03-16T11:05:17.660Z,99.90
2019-03-16T11:07:47.152Z,99.90
2019-03-16T11:10:17.116Z,99.90
2019-03-16T11:12:47.595Z,99.90
2019-03-16T11:15:17.213Z,99.90
2019-03-16T11:17:46.851Z,99.90
2019-03-16T11:20:19.070Z,99.90
2019-03-16T11:22:48.531Z,99.90
2019-03-16T11:25:20.033Z,99.90
2019-03-16T11:27:52.119Z,99.90
2019-03-16T11:30:21.628Z,99.90
2019-03-16T11:32:51.600Z,99.90
2019-03-16T11:35:22.251Z,99.90
2019-03-16T11:37:53.264Z,99.90
2019-03-16T11:40:23.236Z,99.90
2019-03-16T11:42:52.910Z,99.90
2019-03-16T11:45:23.358Z,99.90
2019-03-16T11:47:53.341Z,99.90
2019-03-16T11:50:23.208Z,99.90
2019-03-16T11:52:53.157Z,99.90
2019-03-16T11:55:24.466Z,99.90
2019-03-16T11:57:54.324Z,99.90
2019-03-16T12:00:24.332Z,99.90
2019-03-16T12:02:54.306Z,99.90
2019-03-16T12:05:23.916Z,99.90
2019-03-16T12:07:53.772Z,99.90
2019-03-16T12:10:23.731Z,99.90
2019-03-16T12:12:53.603Z,99.90
2019-03-16T12:15:23.624Z,99.90
2019-03-16T12:17:53.240Z,99.90
2019-03-16T12:20:22.791Z,99.90
2019-03-16T12:22:52.300Z,99.90
2019-03-16T12:25:22.011Z,99.90
2019-03-16T12:27:51.598Z,99.90
2019-03-16T12:30:21.513Z,99.90
2019-03-16T12:32:51.062Z,99.90
2019-03-16T12:35:21.008Z,99.90
2019-03-16T12:37:50.952Z,99.90
2019-03-16T12:40:20.685Z,99.90
2019-03-16T12:42:50.437Z,99.90
2019-03-16T12:45:21.156Z,95.20
2019-03-16T12:47:50.965Z,78.10
2019-03-16T12:50:20.475Z,82.60
2019-03-16T12:52:50.056Z,82.70
2019-03-16T12:55:19.794Z,79.60
2019-03-16T12:57:55.417Z,70.70
2019-03-16T13:00:25.093Z,77.10
2019-03-16T13:02:57.136Z,76.80
2019-03-16T13:05:26.689Z,79.60
2019-03-16T13:07:59.377Z,71.40
2019-03-16T13:10:29.924Z,67.50
2019-03-16T13:12:59.900Z,65.80
2019-03-16T13:15:29.784Z,69.00
2019-03-16T13:17:59.436Z,67.70
2019-03-16T13:20:29.338Z,68.30
2019-03-16T13:22:58.888Z,72.90
2019-03-16T13:25:28.858Z,74.20
2019-03-16T13:27:59.313Z,76.10
2019-03-16T13:30:28.921Z,75.00
2019-03-16T13:32:58.557Z,77.60
2019-03-16T13:35:28.160Z,78.30
2019-03-16T13:37:57.743Z,76.80
2019-03-16T13:40:27.692Z,79.20
2019-03-16T13:42:58.186Z,80.20
2019-03-16T13:45:27.971Z,82.00
2019-03-16T13:47:57.514Z,80.20
2019-03-16T13:50:34.286Z,78.00
2019-03-16T13:53:04.752Z,80.60
2019-03-16T13:55:35.453Z,80.80
2019-03-16T13:58:06.937Z,81.90
2019-03-16T14:00:36.917Z,83.00
2019-03-16T14:03:06.573Z,80.90
2019-03-16T14:05:36.224Z,82.70
2019-03-16T14:08:06.053Z,81.70
2019-03-16T14:10:35.964Z,81.60
2019-03-16T14:13:11.901Z,82.90
2019-03-16T14:15:41.531Z,81.60
2019-03-16T14:18:11.157Z,84.10
2019-03-16T14:20:40.894Z,82.20
2019-03-16T14:23:11.933Z,81.70
2019-03-16T14:25:45.510Z,84.80
2019-03-16T14:28:15.124Z,84.60
2019-03-16T14:30:46.186Z,84.00
2019-03-16T14:33:18.321Z,84.60
2019-03-16T14:35:48.292Z,87.20
2019-03-16T14:38:17.841Z,84.80
2019-03-16T14:40:47.685Z,85.00
2019-03-16T14:43:18.308Z,86.10
2019-03-16T14:45:49.112Z,86.60
2019-03-16T14:48:19.392Z,87.30
2019-03-16T14:50:49.521Z,85.80
2019-03-16T14:53:19.032Z,86.80
2019-03-16T14:55:48.480Z,83.10
2019-03-16T14:58:21.257Z,82.80
2019-03-16T15:00:52.356Z,67.60
2019-03-16T15:03:21.899Z,61.50
2019-03-16T15:05:52.802Z,57.80
2019-03-16T15:08:23.616Z,59.40
2019-03-16T15:10:54.498Z,63.30
2019-03-16T15:13:26.750Z,66.00
2019-03-16T15:15:55.293Z,69.70
2019-03-16T15:18:24.781Z,71.50
2019-03-16T15:20:54.545Z,74.60
2019-03-16T15:23:26.140Z,79.00
2019-03-16T15:25:56.118Z,80.70
2019-03-16T15:28:28.160Z,79.20
2019-03-16T15:30:57.725Z,84.10
2019-03-16T15:33:27.481Z,84.60
2019-03-16T15:35:57.352Z,87.00
2019-03-16T15:38:26.792Z,86.60
2019-03-16T15:40:56.716Z,89.40
2019-03-16T15:43:26.740Z,89.30
2019-03-16T15:45:56.761Z,88.80
2019-03-16T15:48:26.825Z,91.20
2019-03-16T15:50:56.618Z,89.50
2019-03-16T15:53:26.121Z,88.10
2019-03-16T15:55:55.645Z,89.50
2019-03-16T15:58:25.592Z,89.60
2019-03-16T16:01:03.422Z,90.00
2019-03-16T16:03:26.621Z,84.90
2019-03-16T16:05:58.779Z,83.80
2019-03-16T16:08:28.886Z,78.70
2019-03-16T16:11:01.131Z,76.30
2019-03-16T16:13:30.970Z,74.90
2019-03-16T16:16:01.643Z,75.00
2019-03-16T16:18:31.350Z,75.20
2019-03-16T16:21:01.052Z,74.50
2019-03-16T16:23:30.553Z,76.30
2019-03-16T16:26:00.512Z,78.60
2019-03-16T16:28:30.105Z,76.60
2019-03-16T16:30:59.687Z,80.60
2019-03-16T16:33:29.368Z,79.30
2019-03-16T16:35:59.949Z,78.60
2019-03-16T16:38:31.957Z,80.40
2019-03-16T16:41:03.926Z,81.10
2019-03-16T16:43:34.588Z,79.30
2019-03-16T16:46:04.501Z,81.70
2019-03-16T16:48:34.020Z,81.10
2019-03-16T16:51:05.882Z,79.00
2019-03-16T16:53:35.397Z,80.50
2019-03-16T16:56:05.905Z,80.70
2019-03-16T16:58:35.557Z,82.20
2019-03-16T17:01:05.484Z,78.50
2019-03-16T17:03:35.035Z,82.00
2019-03-16T17:06:05.006Z,82.80
2019-03-16T17:08:34.509Z,80.90
2019-03-16T17:11:04.021Z,82.40
2019-03-16T17:13:34.016Z,82.70
2019-03-16T17:16:04.148Z,82.80
2019-03-16T17:18:33.614Z,81.10
2019-03-16T17:21:03.464Z,82.40
2019-03-16T17:23:32.983Z,80.30
2019-03-16T17:26:02.563Z,82.60
2019-03-16T17:28:32.065Z,81.30
2019-03-16T17:31:05.196Z,81.20
2019-03-16T17:33:35.871Z,81.80
2019-03-16T17:36:05.883Z,83.60
2019-03-16T17:38:36.039Z,84.20
2019-03-16T17:41:05.716Z,84.90
2019-03-16T17:43:35.244Z,84.20
2019-03-16T17:46:04.835Z,87.50
2019-03-16T17:48:34.449Z,85.10
2019-03-16T17:51:04.139Z,86.50
2019-03-16T17:53:35.225Z,86.80
2019-03-16T17:56:05.141Z,87.50
2019-03-16T17:58:34.910Z,86.00
2019-03-16T18:01:04.425Z,87.40
2019-03-16T18:03:33.929Z,87.00
2019-03-16T18:06:03.417Z,88.00
2019-03-16T18:08:32.976Z,89.50
2019-03-16T18:11:02.688Z,89.30
2019-03-16T18:13:32.602Z,89.10
2019-03-16T18:16:02.521Z,87.90
2019-03-16T18:18:32.664Z,90.20
2019-03-16T18:21:04.363Z,88.30
2019-03-16T18:23:34.208Z,89.30
2019-03-16T18:26:04.026Z,88.40
2019-03-16T18:28:33.732Z,90.00
2019-03-16T18:31:03.294Z,90.90
2019-03-16T18:33:32.750Z,90.10
2019-03-16T18:36:02.224Z,91.20
2019-03-16T18:38:31.961Z,90.50
2019-03-16T18:41:01.563Z,91.70
2019-03-16T18:43:31.484Z,91.80
2019-03-16T18:46:01.018Z,92.70
2019-03-16T18:48:30.658Z,93.60
2019-03-16T18:51:00.427Z,94.40
2019-03-16T18:53:30.613Z,94.60
2019-03-16T18:56:01.588Z,95.70
2019-03-16T18:58:37.017Z,96.90
2019-03-16T19:01:03.870Z,96.40
2019-03-16T19:03:33.416Z,96.30
2019-03-16T19:06:03.450Z,97.90
2019-03-16T19:08:33.047Z,97.60
2019-03-16T19:11:05.088Z,97.70
2019-03-16T19:13:35.609Z,98.30
2019-03-16T19:16:05.339Z,98.50
2019-03-16T19:18:35.141Z,99.90
2019-03-16T19:21:05.085Z,99.90
2019-03-16T19:23:34.591Z,99.90
2019-03-16T19:26:04.273Z,99.90
2019-03-16T19:28:34.258Z,99.90
2019-03-16T19:31:03.969Z,99.90
2019-03-16T19:33:33.942Z,99.90
2019-03-16T19:36:03.959Z,99.90
2019-03-16T19:38:33.480Z,99.90
2019-03-16T19:41:03.080Z,99.90
2019-03-16T19:43:32.808Z,99.90
2019-03-16T19:46:02.294Z,99.90
2019-03-16T19:48:32.368Z,99.90
2019-03-16T19:51:21.245Z,99.90
2019-03-16T19:53:50.775Z,99.90
2019-03-16T19:56:20.376Z,99.90
2019-03-16T19:59:00.099Z,99.90
2019-03-16T20:01:21.231Z,99.90
2019-03-16T20:03:52.023Z,99.90
2019-03-16T20:06:25.920Z,99.90
2019-03-16T20:08:52.684Z,99.90
2019-03-16T20:11:22.188Z,99.90
2019-03-16T20:13:51.793Z,99.90
2019-03-16T20:16:21.619Z,99.90
2019-03-16T20:18:51.405Z,99.90
2019-03-16T20:21:20.866Z,99.90
2019-03-16T20:23:50.727Z,99.90
2019-03-16T20:26:20.289Z,99.90
2019-03-16T20:28:49.743Z,99.90
2019-03-16T20:31:19.548Z,99.90
2019-03-16T20:33:49.058Z,99.90
2019-03-16T20:36:19.723Z,99.90
2019-03-16T20:38:49.244Z,99.90
2019-03-16T20:41:18.865Z,99.90
2019-03-16T20:43:49.447Z,99.90
2019-03-16T20:46:20.269Z,99.90
2019-03-16T20:48:49.899Z,99.90
2019-03-16T20:51:19.471Z,99.90
2019-03-16T20:53:48.976Z,99.90
2019-03-16T20:56:20.856Z,99.90
2019-03-16T20:58:50.651Z,99.90
2019-03-16T21:01:21.296Z,99.90
2019-03-16T21:03:50.923Z,99.90
2019-03-16T21:06:20.494Z,99.90
2019-03-16T21:09:02.650Z,99.90
2019-03-16T21:11:22.493Z,99.90
2019-03-16T21:13:52.484Z,99.90
2019-03-16T21:16:21.987Z,99.90
2019-03-16T21:18:51.579Z,99.90
2019-03-16T21:21:21.040Z,99.90
2019-03-16T21:23:50.619Z,99.90
2019-03-16T21:26:20.044Z,99.90
2019-03-16T21:28:49.737Z,99.90
2019-03-16T21:31:19.805Z,99.90
2019-03-16T21:33:49.600Z,99.90
2019-03-16T21:36:19.704Z,99.90
2019-03-16T21:38:49.143Z,99.90
2019-03-16T21:41:18.584Z,99.90
2019-03-16T21:43:48.039Z,99.90
2019-03-16T21:46:17.612Z,99.90
2019-03-16T21:48:47.876Z,99.90
2019-03-16T21:51:17.433Z,99.90
2019-03-16T21:53:46.942Z,99.90
2019-03-16T21:56:16.456Z,99.90
2019-03-16T21:58:46.700Z,99.90
2019-03-16T22:01:17.415Z,99.90
2019-03-16T22:03:47.649Z,99.90
2019-03-16T22:06:17.965Z,99.90
2019-03-16T22:08:47.406Z,99.90
2019-03-16T22:11:16.933Z,99.90
2019-03-16T22:13:46.460Z,99.90
2019-03-16T22:16:15.944Z,99.90
2019-03-16T22:18:45.573Z,99.90
2019-03-16T22:21:15.084Z,99.90
2019-03-16T22:23:45.716Z,99.90
2019-03-16T22:26:15.453Z,99.90
2019-03-16T22:28:45.038Z,99.90
2019-03-16T22:31:14.644Z,99.90
2019-03-16T22:33:54.046Z,99.90
2019-03-16T22:36:15.271Z,99.90
2019-03-16T22:38:44.882Z,99.90
2019-03-16T22:41:14.845Z,99.90
2019-03-16T22:43:44.405Z,99.90
2019-03-16T22:46:15.279Z,99.90
2019-03-16T22:48:44.808Z,99.90
2019-03-16T22:51:15.100Z,99.90
2019-03-16T22:53:44.527Z,99.90
2019-03-16T22:56:13.983Z,99.90
2019-03-16T22:58:43.832Z,99.90
2019-03-16T23:01:13.752Z,99.90
2019-03-16T23:03:43.520Z,99.90
2019-03-16T23:06:13.307Z,99.90
2019-03-16T23:08:42.798Z,99.90
2019-03-16T23:11:12.319Z,99.90
2019-03-16T23:13:41.760Z,99.90
2019-03-16T23:16:12.380Z,99.90
2019-03-16T23:18:42.024Z,99.90
2019-03-16T23:21:11.782Z,99.90
2019-03-16T23:23:42.716Z,99.90
2019-03-16T23:26:12.345Z,99.90
2019-03-16T23:28:41.805Z,99.90
2019-03-16T23:31:12.538Z,99.90
2019-03-16T23:33:42.536Z,99.90
2019-03-16T23:36:12.256Z,99.90
2019-03-16T23:38:41.699Z,99.90
2019-03-16T23:41:11.164Z,99.90
2019-03-16T23:43:41.080Z,99.90
2019-03-16T23:46:10.892Z,99.90
2019-03-16T23:48:40.491Z,99.90
2019-03-16T23:51:09.982Z,99.90
2019-03-16T23:53:39.599Z,99.90
2019-03-16T23:56:09.053Z,99.90
2019-03-16T23:58:38.486Z,99.90
